Tats — ZCYJ — position and weather

sailwx.info

Track history (hours):
 
Tides and Currents Weather Stations Pressure Air Temp Water Temp Dewpoint Dewpoint Depression Visibility Wind Speed Wind Dir Waves Ship Positions

Tats

Last reported at 2014-Jul-29 10:33 UTC. Time now 2014-Jul-29 10:50 UTC.
Position N 40°43' W 074°01'.

Length 40 m; draft 2.3 m.

Type: Pleasure craft. MMSI: 319003500.

Date/timePositionNaut miles runAvg speedWind from/ knotsBaromVisibWave heightAir tempDewpointWater temp
2014-Jul-29 10:33N 40°43' W 074°01'0 0.0
2014-Jul-29 09:30N 40°43' W 074°01'0 0.0
2014-Jul-29 08:30N 40°43' W 074°01'0 0.0
2014-Jul-29 07:33N 40°43' W 074°01'0 0.0
2014-Jul-29 06:33N 40°43' W 074°01'0 0.0
2014-Jul-29 05:33N 40°43' W 074°01'0 0.0
2014-Jul-29 04:33N 40°43' W 074°01'0 0.0
2014-Jul-29 03:28N 40°43' W 074°01'0 0.0
2014-Jul-29 02:33N 40°43' W 074°01'0 0.0
2014-Jul-29 01:32N 40°43' W 074°01'0 0.0
2014-Jul-29 00:32N 40°43' W 074°01'0 0.0
2014-Jul-28 23:33N 40°43' W 074°01'0 0.0
2014-Jul-28 22:33N 40°43' W 074°01'0 0.0
2014-Jul-28 21:33N 40°43' W 074°01'0 0.0
2014-Jul-28 20:33N 40°43' W 074°01'0 0.0
2014-Jul-28 19:33N 40°43' W 074°01'0 0.0
2014-Jul-28 18:32N 40°43' W 074°01'0 0.0
2014-Jul-28 17:34N 40°43' W 074°01'0 0.0
2014-Jul-28 16:34N 40°43' W 074°01'0 0.0
2014-Jul-28 15:33N 40°43' W 074°01'0 0.0
2014-Jul-28 14:31N 40°43' W 074°01'0 0.0
2014-Jul-28 13:32N 40°43' W 074°01'0 0.0
2014-Jul-28 12:33N 40°43' W 074°01'0 0.0
2014-Jul-28 11:34N 40°43' W 074°01'0 0.0
2014-Jul-28 10:34N 40°43' W 074°01'0 0.0
2014-Jul-28 09:33N 40°43' W 074°01'0 0.0
2014-Jul-28 08:33N 40°43' W 074°01'0 0.0
2014-Jul-28 07:26N 40°43' W 074°01'0 0.0
2014-Jul-28 06:33N 40°43' W 074°01'0 0.0
2014-Jul-28 05:33N 40°43' W 074°01'0 0.0
2014-Jul-28 04:33N 40°43' W 074°01'0 0.0
2014-Jul-28 03:26N 40°43' W 074°01'0 0.0
2014-Jul-28 02:29N 40°43' W 074°01'0 0.0
2014-Jul-28 01:32N 40°43' W 074°01'0 0.0
2014-Jul-27 22:23N 40°43' W 074°01'5 6.1
2014-Jul-27 21:30N 40°47' W 073°56'4 1.0
2014-Jul-27 17:31N 40°48' W 073°51'8 8.6
2014-Jul-27 16:34N 40°42' W 073°59'1 0.4
2014-Jul-27 13:25N 40°43' W 074°01'0 0.0
2014-Jul-27 12:04N 40°43' W 074°01'0 0.0
2014-Jul-27 11:13N 40°43' W 074°01'0 0.0
2014-Jul-27 10:31N 40°43' W 074°01'0 0.0
2014-Jul-27 09:25N 40°43' W 074°01'0 0.0
2014-Jul-27 08:31N 40°43' W 074°01'0 0.0
2014-Jul-27 07:13N 40°43' W 074°01'0 0.0
2014-Jul-27 06:31N 40°43' W 074°01'0 0.0
2014-Jul-27 05:31N 40°43' W 074°01'0 0.0
2014-Jul-27 04:25N 40°43' W 074°01'0 0.0
2014-Jul-27 03:31N 40°43' W 074°01'0 0.0
2014-Jul-26 22:19N 40°43' W 074°01'0 0.0
2014-Jul-26 21:28N 40°43' W 074°01'0 0.0
2014-Jul-26 20:31N 40°43' W 074°01'0 0.0
2014-Jul-26 19:31N 40°43' W 074°01'0 0.0
2014-Jul-26 18:31N 40°43' W 074°01'0 0.0
2014-Jul-26 17:34N 40°43' W 074°01'0 0.0
2014-Jul-26 16:31N 40°43' W 074°01'0 0.0
2014-Jul-26 15:16N 40°43' W 074°01'0 0.0
2014-Jul-26 14:34N 40°43' W 074°01'0 0.0
2014-Jul-26 12:22N 40°43' W 074°01'0 0.0
2014-Jul-26 11:28N 40°43' W 074°01'0 0.0
2014-Jul-26 10:19N 40°43' W 074°01'0 0.0
2014-Jul-26 09:07N 40°43' W 074°01'0 0.0
2014-Jul-26 08:13N 40°43' W 074°01'0 0.0
2014-Jul-26 07:31N 40°43' W 074°01'0 0.0
2014-Jul-26 06:25N 40°43' W 074°01'0 0.0
2014-Jul-26 05:31N 40°43' W 074°01'0 0.1
2014-Jul-26 04:22N 40°43' W 074°01'0 0.1
2014-Jul-26 03:25N 40°43' W 074°01'0 0.0
2014-Jul-26 02:31N 40°43' W 074°01'0 0.0
2014-Jul-26 01:34N 40°43' W 074°01'0 0.0
2014-Jul-26 00:34N 40°43' W 074°01'0 0.0
2014-Jul-25 23:28N 40°43' W 074°01'0 0.0
2014-Jul-25 22:34N 40°43' W 074°01'0 0.0
2014-Jul-25 21:25N 40°43' W 074°01'2 2.9
2014-Jul-25 20:33N 40°44' W 073°58'1410.5
2014-Jul-25 19:13N 40°53' W 073°44'4 0.4
2014-Jul-25 10:31N 40°57' W 073°44'0 0.0
2014-Jul-25 09:31N 40°57' W 073°44'  
2014-Jul-22 04:31N 40°57' W 073°44'0 0.0
2014-Jul-21 17:12N 40°57' W 073°44'3 4.0
2014-Jul-21 16:32N 40°54' W 073°44'1110.8
2014-Jul-21 15:33N 40°48' W 073°54'7 6.8
2014-Jul-21 14:33N 40°43' W 074°01'0 0.0
2014-Jul-21 13:28N 40°43' W 074°01'0 0.0
2014-Jul-20 15:17N 40°43' W 074°01'0 0.0
2014-Jul-20 14:23N 40°43' W 074°01'0 0.0
2014-Jul-19 15:05N 40°43' W 074°01'  
Track history (hours):
 
Tides and Currents Weather Stations Pressure Air Temp Water Temp Dewpoint Dewpoint Depression Visibility Wind Speed Wind Dir Waves Ship Positions

Tats

Last reported at 2014-Jul-29 10:33 UTC. Time now 2014-Jul-29 10:50 UTC.
Position N 40°43' W 074°01'.

Length 40 m; draft 2.3 m.

Type: Pleasure craft. MMSI: 319003500.

Date/timePositionNaut miles runAvg speedWind from/ knotsBaromVisibWave heightAir tempDewpointWater temp
2014-Jul-29 10:33N 40°43' W 074°01'0 0.0
2014-Jul-29 09:30N 40°43' W 074°01'0 0.0
2014-Jul-29 08:30N 40°43' W 074°01'0 0.0
2014-Jul-29 07:33N 40°43' W 074°01'0 0.0
2014-Jul-29 06:33N 40°43' W 074°01'0 0.0
2014-Jul-29 05:33N 40°43' W 074°01'0 0.0
2014-Jul-29 04:33N 40°43' W 074°01'0 0.0
2014-Jul-29 03:28N 40°43' W 074°01'0 0.0
2014-Jul-29 02:33N 40°43' W 074°01'0 0.0
2014-Jul-29 01:32N 40°43' W 074°01'0 0.0
2014-Jul-29 00:32N 40°43' W 074°01'0 0.0
2014-Jul-28 23:33N 40°43' W 074°01'0 0.0
2014-Jul-28 22:33N 40°43' W 074°01'0 0.0
2014-Jul-28 21:33N 40°43' W 074°01'0 0.0
2014-Jul-28 20:33N 40°43' W 074°01'0 0.0
2014-Jul-28 19:33N 40°43' W 074°01'0 0.0
2014-Jul-28 18:32N 40°43' W 074°01'0 0.0
2014-Jul-28 17:34N 40°43' W 074°01'0 0.0
2014-Jul-28 16:34N 40°43' W 074°01'0 0.0
2014-Jul-28 15:33N 40°43' W 074°01'0 0.0
2014-Jul-28 14:31N 40°43' W 074°01'0 0.0
2014-Jul-28 13:32N 40°43' W 074°01'0 0.0
2014-Jul-28 12:33N 40°43' W 074°01'0 0.0
2014-Jul-28 11:34N 40°43' W 074°01'0 0.0
2014-Jul-28 10:34N 40°43' W 074°01'0 0.0
2014-Jul-28 09:33N 40°43' W 074°01'0 0.0
2014-Jul-28 08:33N 40°43' W 074°01'0 0.0
2014-Jul-28 07:26N 40°43' W 074°01'0 0.0
2014-Jul-28 06:33N 40°43' W 074°01'0 0.0
2014-Jul-28 05:33N 40°43' W 074°01'0 0.0
2014-Jul-28 04:33N 40°43' W 074°01'0 0.0
2014-Jul-28 03:26N 40°43' W 074°01'0 0.0
2014-Jul-28 02:29N 40°43' W 074°01'0 0.0
2014-Jul-28 01:32N 40°43' W 074°01'0 0.0
2014-Jul-27 22:23N 40°43' W 074°01'5 6.1
2014-Jul-27 21:30N 40°47' W 073°56'4 1.0
2014-Jul-27 17:31N 40°48' W 073°51'8 8.6
2014-Jul-27 16:34N 40°42' W 073°59'1 0.4
2014-Jul-27 13:25N 40°43' W 074°01'0 0.0
2014-Jul-27 12:04N 40°43' W 074°01'0 0.0
2014-Jul-27 11:13N 40°43' W 074°01'0 0.0
2014-Jul-27 10:31N 40°43' W 074°01'0 0.0
2014-Jul-27 09:25N 40°43' W 074°01'0 0.0
2014-Jul-27 08:31N 40°43' W 074°01'0 0.0
2014-Jul-27 07:13N 40°43' W 074°01'0 0.0
2014-Jul-27 06:31N 40°43' W 074°01'0 0.0
2014-Jul-27 05:31N 40°43' W 074°01'0 0.0
2014-Jul-27 04:25N 40°43' W 074°01'0 0.0
2014-Jul-27 03:31N 40°43' W 074°01'0 0.0
2014-Jul-26 22:19N 40°43' W 074°01'0 0.0
2014-Jul-26 21:28N 40°43' W 074°01'0 0.0
2014-Jul-26 20:31N 40°43' W 074°01'0 0.0
2014-Jul-26 19:31N 40°43' W 074°01'0 0.0
2014-Jul-26 18:31N 40°43' W 074°01'0 0.0
2014-Jul-26 17:34N 40°43' W 074°01'0 0.0
2014-Jul-26 16:31N 40°43' W 074°01'0 0.0
2014-Jul-26 15:16N 40°43' W 074°01'0 0.0
2014-Jul-26 14:34N 40°43' W 074°01'0 0.0
2014-Jul-26 12:22N 40°43' W 074°01'0 0.0
2014-Jul-26 11:28N 40°43' W 074°01'0 0.0
2014-Jul-26 10:19N 40°43' W 074°01'0 0.0
2014-Jul-26 09:07N 40°43' W 074°01'0 0.0
2014-Jul-26 08:13N 40°43' W 074°01'0 0.0
2014-Jul-26 07:31N 40°43' W 074°01'0 0.0
2014-Jul-26 06:25N 40°43' W 074°01'0 0.0
2014-Jul-26 05:31N 40°43' W 074°01'0 0.1
2014-Jul-26 04:22N 40°43' W 074°01'0 0.1
2014-Jul-26 03:25N 40°43' W 074°01'0 0.0
2014-Jul-26 02:31N 40°43' W 074°01'0 0.0
2014-Jul-26 01:34N 40°43' W 074°01'0 0.0
2014-Jul-26 00:34N 40°43' W 074°01'0 0.0
2014-Jul-25 23:28N 40°43' W 074°01'0 0.0
2014-Jul-25 22:34N 40°43' W 074°01'0 0.0
2014-Jul-25 21:25N 40°43' W 074°01'2 2.9
2014-Jul-25 20:33N 40°44' W 073°58'1410.5
2014-Jul-25 19:13N 40°53' W 073°44'4 0.4
2014-Jul-25 10:31N 40°57' W 073°44'0 0.0
2014-Jul-25 09:31N 40°57' W 073°44'  
2014-Jul-22 04:31N 40°57' W 073°44'0 0.0
2014-Jul-21 17:12N 40°57' W 073°44'3 4.0
2014-Jul-21 16:32N 40°54' W 073°44'1110.8
2014-Jul-21 15:33N 40°48' W 073°54'7 6.8
2014-Jul-21 14:33N 40°43' W 074°01'0 0.0
2014-Jul-21 13:28N 40°43' W 074°01'0 0.0
2014-Jul-20 15:17N 40°43' W 074°01'0 0.0
2014-Jul-20 14:23N 40°43' W 074°01'0 0.0
2014-Jul-19 15:05N 40°43' W 074°01'  

Dump ship's entire track history